sensor_id;sensor_type;location;lat;lon;timestamp;P1;durP1;ratioP1;P2;durP2;ratioP2
32786;SDS011;19139;49.372;8.580;2022-07-29T00:01:06;5.00;;;3.70;;
32786;SDS011;19139;49.372;8.580;2022-07-29T00:03:38;5.50;;;3.10;;
32786;SDS011;19139;49.372;8.580;2022-07-29T00:06:05;5.53;;;3.17;;
32786;SDS011;19139;49.372;8.580;2022-07-29T00:08:37;3.10;;;2.70;;
32786;SDS011;19139;49.372;8.580;2022-07-29T00:11:03;3.50;;;3.20;;
32786;SDS011;19139;49.372;8.580;2022-07-29T00:13:35;3.87;;;3.20;;
32786;SDS011;19139;49.372;8.580;2022-07-29T00:16:01;4.03;;;3.40;;
32786;SDS011;19139;49.372;8.580;2022-07-29T00:18:33;3.77;;;3.47;;
32786;SDS011;19139;49.372;8.580;2022-07-29T00:21:05;4.00;;;3.50;;
32786;SDS011;19139;49.372;8.580;2022-07-29T00:23:36;5.03;;;3.90;;
32786;SDS011;19139;49.372;8.580;2022-07-29T00:26:08;4.80;;;3.30;;
32786;SDS011;19139;49.372;8.580;2022-07-29T00:28:34;4.07;;;3.67;;
32786;SDS011;19139;49.372;8.580;2022-07-29T00:31:06;3.87;;;2.90;;
32786;SDS011;19139;49.372;8.580;2022-07-29T00:33:34;5.83;;;4.10;;
32786;SDS011;19139;49.372;8.580;2022-07-29T00:36:00;4.30;;;3.90;;
32786;SDS011;19139;49.372;8.580;2022-07-29T00:38:27;4.50;;;4.10;;
32786;SDS011;19139;49.372;8.580;2022-07-29T00:40:53;5.30;;;4.10;;
32786;SDS011;19139;49.372;8.580;2022-07-29T00:43:25;4.30;;;3.90;;
32786;SDS011;19139;49.372;8.580;2022-07-29T00:45:57;4.53;;;4.00;;
32786;SDS011;19139;49.372;8.580;2022-07-29T00:48:23;4.93;;;4.53;;
32786;SDS011;19139;49.372;8.580;2022-07-29T00:50:55;5.10;;;4.53;;
32786;SDS011;19139;49.372;8.580;2022-07-29T00:53:24;4.37;;;3.87;;
32786;SDS011;19139;49.372;8.580;2022-07-29T00:55:57;5.10;;;3.93;;
32786;SDS011;19139;49.372;8.580;2022-07-29T00:58:24;5.40;;;3.87;;
32786;SDS011;19139;49.372;8.580;2022-07-29T01:00:57;4.70;;;4.30;;
32786;SDS011;19139;49.372;8.580;2022-07-29T01:03:24;4.17;;;3.77;;
32786;SDS011;19139;49.372;8.580;2022-07-29T01:05:56;5.87;;;4.13;;
32786;SDS011;19139;49.372;8.580;2022-07-29T01:08:23;6.77;;;3.97;;
32786;SDS011;19139;49.372;8.580;2022-07-29T01:10:54;4.13;;;3.73;;
32786;SDS011;19139;49.372;8.580;2022-07-29T01:13:22;4.23;;;3.90;;
32786;SDS011;19139;49.372;8.580;2022-07-29T01:15:54;4.17;;;3.80;;
32786;SDS011;19139;49.372;8.580;2022-07-29T01:18:34;4.77;;;4.10;;
32786;SDS011;19139;49.372;8.580;2022-07-29T01:21:15;4.73;;;4.20;;
32786;SDS011;19139;49.372;8.580;2022-07-29T01:27:01;5.23;;;4.50;;
32786;SDS011;19139;49.372;8.580;2022-07-29T01:29:41;5.97;;;4.33;;
32786;SDS011;19139;49.372;8.580;2022-07-29T01:32:19;4.53;;;4.13;;
32786;SDS011;19139;49.372;8.580;2022-07-29T01:34:55;5.43;;;4.77;;
32786;SDS011;19139;49.372;8.580;2022-07-29T01:40:02;3.93;;;3.57;;
32786;SDS011;19139;49.372;8.580;2022-07-29T01:42:33;4.43;;;4.13;;
32786;SDS011;19139;49.372;8.580;2022-07-29T01:45:21;6.43;;;4.07;;
32786;SDS011;19139;49.372;8.580;2022-07-29T01:48:02;5.03;;;4.00;;
32786;SDS011;19139;49.372;8.580;2022-07-29T01:50:39;4.70;;;4.10;;
32786;SDS011;19139;49.372;8.580;2022-07-29T01:53:43;4.40;;;4.07;;
32786;SDS011;19139;49.372;8.580;2022-07-29T01:56:08;5.43;;;4.10;;
32786;SDS011;19139;49.372;8.580;2022-07-29T01:58:37;6.43;;;4.23;;
32786;SDS011;19139;49.372;8.580;2022-07-29T02:01:08;6.23;;;4.17;;
32786;SDS011;19139;49.372;8.580;2022-07-29T02:03:37;7.17;;;4.87;;
32786;SDS011;19139;49.372;8.580;2022-07-29T02:06:05;4.87;;;4.13;;
32786;SDS011;19139;49.372;8.580;2022-07-29T02:08:33;5.00;;;3.63;;
32786;SDS011;19139;49.372;8.580;2022-07-29T02:11:07;5.00;;;4.50;;
32786;SDS011;19139;49.372;8.580;2022-07-29T02:13:39;5.07;;;4.33;;
32786;SDS011;19139;49.372;8.580;2022-07-29T02:16:13;4.83;;;4.33;;
32786;SDS011;19139;49.372;8.580;2022-07-29T02:18:47;5.30;;;4.20;;
32786;SDS011;19139;49.372;8.580;2022-07-29T02:21:23;6.93;;;4.40;;
32786;SDS011;19139;49.372;8.580;2022-07-29T02:23:57;4.87;;;4.37;;
32786;SDS011;19139;49.372;8.580;2022-07-29T02:26:31;5.67;;;4.33;;
32786;SDS011;19139;49.372;8.580;2022-07-29T02:29:04;4.50;;;4.10;;
32786;SDS011;19139;49.372;8.580;2022-07-29T02:31:32;6.33;;;5.07;;
32786;SDS011;19139;49.372;8.580;2022-07-29T02:34:06;5.27;;;4.77;;
32786;SDS011;19139;49.372;8.580;2022-07-29T02:36:34;7.53;;;4.90;;
32786;SDS011;19139;49.372;8.580;2022-07-29T02:39:07;6.17;;;4.70;;
32786;SDS011;19139;49.372;8.580;2022-07-29T02:41:40;6.33;;;5.07;;
32786;SDS011;19139;49.372;8.580;2022-07-29T02:44:24;5.00;;;4.53;;
32786;SDS011;19139;49.372;8.580;2022-07-29T02:49:53;5.00;;;4.50;;
32786;SDS011;19139;49.372;8.580;2022-07-29T02:52:35;4.67;;;4.27;;
32786;SDS011;19139;49.372;8.580;2022-07-29T02:55:16;5.27;;;4.53;;
32786;SDS011;19139;49.372;8.580;2022-07-29T02:57:46;5.07;;;4.60;;
32786;SDS011;19139;49.372;8.580;2022-07-29T03:00:21;5.40;;;4.30;;
32786;SDS011;19139;49.372;8.580;2022-07-29T03:02:57;6.50;;;4.40;;
32786;SDS011;19139;49.372;8.580;2022-07-29T03:05:27;6.43;;;5.03;;
32786;SDS011;19139;49.372;8.580;2022-07-29T03:07:55;4.20;;;3.90;;
32786;SDS011;19139;49.372;8.580;2022-07-29T03:10:26;4.50;;;4.10;;
32786;SDS011;19139;49.372;8.580;2022-07-29T03:12:54;6.53;;;4.77;;
32786;SDS011;19139;49.372;8.580;2022-07-29T03:15:24;5.33;;;4.63;;
32786;SDS011;19139;49.372;8.580;2022-07-29T03:17:52;6.03;;;4.77;;
32786;SDS011;19139;49.372;8.580;2022-07-29T03:20:24;5.03;;;4.37;;
32786;SDS011;19139;49.372;8.580;2022-07-29T03:22:57;5.50;;;4.37;;
32786;SDS011;19139;49.372;8.580;2022-07-29T03:25:28;6.27;;;4.67;;
32786;SDS011;19139;49.372;8.580;2022-07-29T03:28:00;6.43;;;5.10;;
32786;SDS011;19139;49.372;8.580;2022-07-29T03:30:26;5.07;;;4.30;;
32786;SDS011;19139;49.372;8.580;2022-07-29T03:32:54;8.73;;;5.57;;
32786;SDS011;19139;49.372;8.580;2022-07-29T03:35:23;5.07;;;4.50;;
32786;SDS011;19139;49.372;8.580;2022-07-29T03:37:50;5.67;;;4.80;;
32786;SDS011;19139;49.372;8.580;2022-07-29T03:40:22;5.67;;;5.17;;
32786;SDS011;19139;49.372;8.580;2022-07-29T03:42:52;6.70;;;5.33;;
32786;SDS011;19139;49.372;8.580;2022-07-29T03:45:21;5.13;;;4.63;;
32786;SDS011;19139;49.372;8.580;2022-07-29T03:47:50;6.00;;;4.97;;
32786;SDS011;19139;49.372;8.580;2022-07-29T03:50:25;7.23;;;5.07;;
32786;SDS011;19139;49.372;8.580;2022-07-29T03:52:58;6.37;;;5.20;;
32786;SDS011;19139;49.372;8.580;2022-07-29T03:55:25;6.83;;;5.07;;
32786;SDS011;19139;49.372;8.580;2022-07-29T03:57:54;8.23;;;4.70;;
32786;SDS011;19139;49.372;8.580;2022-07-29T04:00:27;5.33;;;4.83;;
32786;SDS011;19139;49.372;8.580;2022-07-29T04:02:56;7.03;;;4.60;;
32786;SDS011;19139;49.372;8.580;2022-07-29T04:05:28;7.20;;;5.13;;
32786;SDS011;19139;49.372;8.580;2022-07-29T04:07:54;6.53;;;4.73;;
32786;SDS011;19139;49.372;8.580;2022-07-29T04:10:26;6.80;;;5.57;;
32786;SDS011;19139;49.372;8.580;2022-07-29T04:12:58;5.70;;;5.13;;
32786;SDS011;19139;49.372;8.580;2022-07-29T04:15:25;8.83;;;5.13;;
32786;SDS011;19139;49.372;8.580;2022-07-29T04:17:56;4.90;;;4.40;;
32786;SDS011;19139;49.372;8.580;2022-07-29T04:20:23;6.27;;;5.10;;
32786;SDS011;19139;49.372;8.580;2022-07-29T04:22:55;5.67;;;4.77;;
32786;SDS011;19139;49.372;8.580;2022-07-29T04:25:26;5.27;;;4.60;;
32786;SDS011;19139;49.372;8.580;2022-07-29T04:27:58;7.27;;;5.40;;
32786;SDS011;19139;49.372;8.580;2022-07-29T04:30:28;8.03;;;5.03;;
32786;SDS011;19139;49.372;8.580;2022-07-29T04:32:55;6.93;;;5.77;;
32786;SDS011;19139;49.372;8.580;2022-07-29T04:35:27;6.20;;;5.50;;
32786;SDS011;19139;49.372;8.580;2022-07-29T04:37:55;6.80;;;5.63;;
32786;SDS011;19139;49.372;8.580;2022-07-29T04:40:21;8.50;;;5.77;;
32786;SDS011;19139;49.372;8.580;2022-07-29T04:42:48;6.63;;;5.40;;
32786;SDS011;19139;49.372;8.580;2022-07-29T04:45:15;8.13;;;5.80;;
32786;SDS011;19139;49.372;8.580;2022-07-29T04:47:47;6.93;;;5.00;;
32786;SDS011;19139;49.372;8.580;2022-07-29T04:50:14;8.07;;;6.30;;
32786;SDS011;19139;49.372;8.580;2022-07-29T04:52:41;5.83;;;5.33;;
32786;SDS011;19139;49.372;8.580;2022-07-29T04:55:07;6.23;;;5.63;;
32786;SDS011;19139;49.372;8.580;2022-07-29T04:57:34;6.07;;;5.10;;
32786;SDS011;19139;49.372;8.580;2022-07-29T05:00:02;6.03;;;5.07;;
32786;SDS011;19139;49.372;8.580;2022-07-29T05:02:30;6.47;;;5.93;;
32786;SDS011;19139;49.372;8.580;2022-07-29T05:04:56;6.83;;;5.20;;
32786;SDS011;19139;49.372;8.580;2022-07-29T05:07:23;9.03;;;5.70;;
32786;SDS011;19139;49.372;8.580;2022-07-29T05:09:50;7.10;;;6.40;;
32786;SDS011;19139;49.372;8.580;2022-07-29T05:12:16;6.17;;;5.57;;
32786;SDS011;19139;49.372;8.580;2022-07-29T05:14:43;5.40;;;4.80;;
32786;SDS011;19139;49.372;8.580;2022-07-29T05:17:10;6.07;;;5.47;;
32786;SDS011;19139;49.372;8.580;2022-07-29T05:19:37;7.60;;;5.77;;
32786;SDS011;19139;49.372;8.580;2022-07-29T05:22:04;6.43;;;5.10;;
32786;SDS011;19139;49.372;8.580;2022-07-29T05:24:36;7.00;;;5.30;;
32786;SDS011;19139;49.372;8.580;2022-07-29T05:27:03;6.53;;;4.80;;
32786;SDS011;19139;49.372;8.580;2022-07-29T05:29:30;6.23;;;5.00;;
32786;SDS011;19139;49.372;8.580;2022-07-29T05:32:10;9.23;;;5.70;;
32786;SDS011;19139;49.372;8.580;2022-07-29T05:34:36;7.07;;;4.83;;
32786;SDS011;19139;49.372;8.580;2022-07-29T05:37:15;7.07;;;5.57;;
32786;SDS011;19139;49.372;8.580;2022-07-29T05:39:42;6.33;;;5.10;;
32786;SDS011;19139;49.372;8.580;2022-07-29T05:42:15;6.80;;;5.23;;
32786;SDS011;19139;49.372;8.580;2022-07-29T05:44:42;5.07;;;4.43;;
32786;SDS011;19139;49.372;8.580;2022-07-29T05:47:09;5.30;;;4.80;;
32786;SDS011;19139;49.372;8.580;2022-07-29T05:49:35;5.63;;;4.77;;
32786;SDS011;19139;49.372;8.580;2022-07-29T05:52:02;5.47;;;3.93;;
32786;SDS011;19139;49.372;8.580;2022-07-29T05:54:29;5.50;;;4.53;;
32786;SDS011;19139;49.372;8.580;2022-07-29T05:56:56;5.27;;;4.73;;
32786;SDS011;19139;49.372;8.580;2022-07-29T05:59:23;7.90;;;5.23;;
32786;SDS011;19139;49.372;8.580;2022-07-29T06:01:54;6.47;;;4.57;;
32786;SDS011;19139;49.372;8.580;2022-07-29T06:04:22;7.93;;;5.33;;
32786;SDS011;19139;49.372;8.580;2022-07-29T06:06:54;7.03;;;4.50;;
32786;SDS011;19139;49.372;8.580;2022-07-29T06:09:26;5.63;;;4.20;;
32786;SDS011;19139;49.372;8.580;2022-07-29T06:11:54;5.40;;;4.90;;
32786;SDS011;19139;49.372;8.580;2022-07-29T06:14:26;6.30;;;4.57;;
32786;SDS011;19139;49.372;8.580;2022-07-29T06:16:52;7.40;;;5.07;;
32786;SDS011;19139;49.372;8.580;2022-07-29T06:19:24;6.57;;;4.30;;
32786;SDS011;19139;49.372;8.580;2022-07-29T06:21:50;6.23;;;4.10;;
32786;SDS011;19139;49.372;8.580;2022-07-29T06:24:22;4.93;;;3.77;;
32786;SDS011;19139;49.372;8.580;2022-07-29T06:26:54;5.17;;;4.67;;
32786;SDS011;19139;49.372;8.580;2022-07-29T06:29:25;5.07;;;3.90;;
32786;SDS011;19139;49.372;8.580;2022-07-29T06:31:52;5.90;;;4.10;;
32786;SDS011;19139;49.372;8.580;2022-07-29T06:34:18;5.97;;;4.17;;
32786;SDS011;19139;49.372;8.580;2022-07-29T06:36:46;6.47;;;4.30;;
32786;SDS011;19139;49.372;8.580;2022-07-29T06:39:13;6.13;;;4.50;;
32786;SDS011;19139;49.372;8.580;2022-07-29T06:41:40;6.43;;;4.80;;
32786;SDS011;19139;49.372;8.580;2022-07-29T06:44:07;5.47;;;4.00;;
32786;SDS011;19139;49.372;8.580;2022-07-29T06:46:34;5.97;;;4.77;;
32786;SDS011;19139;49.372;8.580;2022-07-29T06:49:01;5.13;;;4.03;;
32786;SDS011;19139;49.372;8.580;2022-07-29T06:51:28;5.47;;;4.90;;
32786;SDS011;19139;49.372;8.580;2022-07-29T06:53:55;5.10;;;4.40;;
32786;SDS011;19139;49.372;8.580;2022-07-29T06:56:29;4.93;;;4.53;;
32786;SDS011;19139;49.372;8.580;2022-07-29T06:59:04;6.07;;;4.43;;
32786;SDS011;19139;49.372;8.580;2022-07-29T07:01:36;5.47;;;4.40;;
32786;SDS011;19139;49.372;8.580;2022-07-29T07:04:05;5.40;;;4.50;;
32786;SDS011;19139;49.372;8.580;2022-07-29T07:06:32;6.13;;;4.37;;
32786;SDS011;19139;49.372;8.580;2022-07-29T07:09:04;5.13;;;4.63;;
32786;SDS011;19139;49.372;8.580;2022-07-29T07:11:36;6.27;;;5.00;;
32786;SDS011;19139;49.372;8.580;2022-07-29T07:14:03;4.57;;;4.10;;
32786;SDS011;19139;49.372;8.580;2022-07-29T07:16:34;5.20;;;4.27;;
32786;SDS011;19139;49.372;8.580;2022-07-29T07:19:01;5.47;;;5.00;;
32786;SDS011;19139;49.372;8.580;2022-07-29T07:21:32;5.43;;;4.60;;
32786;SDS011;19139;49.372;8.580;2022-07-29T07:24:04;4.20;;;3.80;;
32786;SDS011;19139;49.372;8.580;2022-07-29T07:26:36;5.20;;;4.67;;
32786;SDS011;19139;49.372;8.580;2022-07-29T07:29:10;4.90;;;4.40;;
32786;SDS011;19139;49.372;8.580;2022-07-29T07:31:42;6.07;;;5.00;;
32786;SDS011;19139;49.372;8.580;2022-07-29T07:34:13;4.93;;;4.40;;
32786;SDS011;19139;49.372;8.580;2022-07-29T07:36:45;5.33;;;4.20;;
32786;SDS011;19139;49.372;8.580;2022-07-29T07:39:16;8.47;;;4.40;;
32786;SDS011;19139;49.372;8.580;2022-07-29T07:41:43;5.40;;;4.77;;
32786;SDS011;19139;49.372;8.580;2022-07-29T07:44:15;5.07;;;4.60;;
32786;SDS011;19139;49.372;8.580;2022-07-29T07:46:46;5.37;;;4.43;;
32786;SDS011;19139;49.372;8.580;2022-07-29T07:49:14;5.60;;;4.27;;
32786;SDS011;19139;49.372;8.580;2022-07-29T07:51:45;5.53;;;4.73;;
32786;SDS011;19139;49.372;8.580;2022-07-29T07:54:16;8.53;;;4.90;;
32786;SDS011;19139;49.372;8.580;2022-07-29T07:56:45;11.03;;;4.73;;
32786;SDS011;19139;49.372;8.580;2022-07-29T07:59:18;5.40;;;4.87;;
32786;SDS011;19139;49.372;8.580;2022-07-29T08:01:45;7.00;;;5.37;;
32786;SDS011;19139;49.372;8.580;2022-07-29T08:04:20;5.93;;;4.67;;
32786;SDS011;19139;49.372;8.580;2022-07-29T08:06:53;10.80;;;5.17;;
32786;SDS011;19139;49.372;8.580;2022-07-29T08:09:20;6.70;;;5.33;;
32786;SDS011;19139;49.372;8.580;2022-07-29T08:11:55;7.60;;;4.70;;
32786;SDS011;19139;49.372;8.580;2022-07-29T08:14:23;6.67;;;5.07;;
32786;SDS011;19139;49.372;8.580;2022-07-29T08:16:55;7.63;;;5.40;;
32786;SDS011;19139;49.372;8.580;2022-07-29T08:19:26;9.73;;;4.80;;
32786;SDS011;19139;49.372;8.580;2022-07-29T08:21:53;9.20;;;5.00;;
32786;SDS011;19139;49.372;8.580;2022-07-29T08:24:20;9.93;;;4.83;;
32786;SDS011;19139;49.372;8.580;2022-07-29T08:27:06;7.47;;;4.63;;
32786;SDS011;19139;49.372;8.580;2022-07-29T08:29:53;6.47;;;4.70;;
32786;SDS011;19139;49.372;8.580;2022-07-29T08:32:21;10.50;;;5.70;;
32786;SDS011;19139;49.372;8.580;2022-07-29T08:34:53;7.30;;;4.73;;
32786;SDS011;19139;49.372;8.580;2022-07-29T08:37:20;8.83;;;5.00;;
32786;SDS011;19139;49.372;8.580;2022-07-29T08:39:46;7.03;;;5.50;;
32786;SDS011;19139;49.372;8.580;2022-07-29T08:42:13;6.67;;;4.97;;
32786;SDS011;19139;49.372;8.580;2022-07-29T08:44:39;7.50;;;5.67;;
32786;SDS011;19139;49.372;8.580;2022-07-29T08:47:06;6.57;;;5.10;;
32786;SDS011;19139;49.372;8.580;2022-07-29T08:49:33;5.83;;;5.23;;
32786;SDS011;19139;49.372;8.580;2022-07-29T08:52:01;11.17;;;5.60;;
32786;SDS011;19139;49.372;8.580;2022-07-29T08:54:28;8.93;;;5.30;;
32786;SDS011;19139;49.372;8.580;2022-07-29T08:57:00;7.33;;;5.00;;
32786;SDS011;19139;49.372;8.580;2022-07-29T08:59:33;6.33;;;5.13;;
32786;SDS011;19139;49.372;8.580;2022-07-29T09:02:05;7.27;;;4.97;;
32786;SDS011;19139;49.372;8.580;2022-07-29T09:04:43;10.03;;;5.40;;
32786;SDS011;19139;49.372;8.580;2022-07-29T09:07:17;8.47;;;5.60;;
32786;SDS011;19139;49.372;8.580;2022-07-29T09:09:44;6.60;;;5.97;;
32786;SDS011;19139;49.372;8.580;2022-07-29T09:12:15;8.50;;;5.63;;
32786;SDS011;19139;49.372;8.580;2022-07-29T09:14:55;7.60;;;5.30;;
32786;SDS011;19139;49.372;8.580;2022-07-29T09:17:39;5.40;;;4.90;;
32786;SDS011;19139;49.372;8.580;2022-07-29T09:20:08;7.67;;;4.87;;
32786;SDS011;19139;49.372;8.580;2022-07-29T09:22:36;11.20;;;5.47;;
32786;SDS011;19139;49.372;8.580;2022-07-29T09:25:07;8.73;;;5.73;;
32786;SDS011;19139;49.372;8.580;2022-07-29T09:27:34;5.77;;;5.13;;
32786;SDS011;19139;49.372;8.580;2022-07-29T09:30:07;5.87;;;5.27;;
32786;SDS011;19139;49.372;8.580;2022-07-29T09:32:56;6.87;;;5.30;;
32786;SDS011;19139;49.372;8.580;2022-07-29T09:35:24;6.70;;;5.30;;
32786;SDS011;19139;49.372;8.580;2022-07-29T09:37:52;6.33;;;5.40;;
32786;SDS011;19139;49.372;8.580;2022-07-29T09:40:20;7.77;;;5.13;;
32786;SDS011;19139;49.372;8.580;2022-07-29T09:42:48;6.20;;;4.77;;
32786;SDS011;19139;49.372;8.580;2022-07-29T09:45:36;8.30;;;5.20;;
32786;SDS011;19139;49.372;8.580;2022-07-29T09:48:14;5.33;;;4.80;;
32786;SDS011;19139;49.372;8.580;2022-07-29T09:50:43;5.43;;;4.93;;
32786;SDS011;19139;49.372;8.580;2022-07-29T09:53:18;5.40;;;4.90;;
32786;SDS011;19139;49.372;8.580;2022-07-29T09:55:59;7.57;;;5.73;;
32786;SDS011;19139;49.372;8.580;2022-07-29T09:58:31;6.40;;;5.23;;
32786;SDS011;19139;49.372;8.580;2022-07-29T10:01:04;5.73;;;5.03;;
32786;SDS011;19139;49.372;8.580;2022-07-29T10:03:51;6.33;;;5.57;;
32786;SDS011;19139;49.372;8.580;2022-07-29T10:06:23;5.37;;;4.90;;
32786;SDS011;19139;49.372;8.580;2022-07-29T10:09:01;6.37;;;5.77;;
32786;SDS011;19139;49.372;8.580;2022-07-29T10:11:34;5.83;;;5.30;;
32786;SDS011;19139;49.372;8.580;2022-07-29T10:14:06;5.70;;;5.20;;
32786;SDS011;19139;49.372;8.580;2022-07-29T10:16:34;6.20;;;5.60;;
32786;SDS011;19139;49.372;8.580;2022-07-29T10:19:02;5.53;;;5.03;;
32786;SDS011;19139;49.372;8.580;2022-07-29T10:21:34;5.83;;;5.10;;
32786;SDS011;19139;49.372;8.580;2022-07-29T10:24:01;5.83;;;5.33;;
32786;SDS011;19139;49.372;8.580;2022-07-29T10:26:29;5.40;;;4.90;;
32786;SDS011;19139;49.372;8.580;2022-07-29T10:28:56;6.03;;;5.10;;
32786;SDS011;19139;49.372;8.580;2022-07-29T10:31:27;5.73;;;5.23;;
32786;SDS011;19139;49.372;8.580;2022-07-29T10:36:48;6.77;;;5.23;;
32786;SDS011;19139;49.372;8.580;2022-07-29T10:42:49;6.13;;;5.63;;
32786;SDS011;19139;49.372;8.580;2022-07-29T10:45:20;6.10;;;5.50;;
32786;SDS011;19139;49.372;8.580;2022-07-29T10:47:47;5.87;;;5.37;;
32786;SDS011;19139;49.372;8.580;2022-07-29T10:50:14;6.00;;;5.50;;
32786;SDS011;19139;49.372;8.580;2022-07-29T10:58:11;5.20;;;4.80;;
32786;SDS011;19139;49.372;8.580;2022-07-29T11:00:39;6.50;;;5.90;;
32786;SDS011;19139;49.372;8.580;2022-07-29T11:03:06;6.33;;;5.20;;
32786;SDS011;19139;49.372;8.580;2022-07-29T11:05:52;5.50;;;5.00;;
32786;SDS011;19139;49.372;8.580;2022-07-29T11:08:20;6.60;;;5.47;;
32786;SDS011;19139;49.372;8.580;2022-07-29T11:11:29;5.87;;;5.47;;
32786;SDS011;19139;49.372;8.580;2022-07-29T11:13:48;6.03;;;5.53;;
32786;SDS011;19139;49.372;8.580;2022-07-29T11:16:22;5.57;;;5.07;;
32786;SDS011;19139;49.372;8.580;2022-07-29T11:21:43;5.60;;;5.10;;
32786;SDS011;19139;49.372;8.580;2022-07-29T11:24:31;6.53;;;5.17;;
32786;SDS011;19139;49.372;8.580;2022-07-29T11:29:39;6.10;;;5.53;;
32786;SDS011;19139;49.372;8.580;2022-07-29T11:32:18;5.80;;;5.20;;
32786;SDS011;19139;49.372;8.580;2022-07-29T11:34:48;6.13;;;5.60;;
32786;SDS011;19139;49.372;8.580;2022-07-29T11:37:43;5.40;;;4.90;;
32786;SDS011;19139;49.372;8.580;2022-07-29T11:40:33;6.17;;;5.57;;
32786;SDS011;19139;49.372;8.580;2022-07-29T11:43:01;5.97;;;5.37;;
32786;SDS011;19139;49.372;8.580;2022-07-29T11:45:45;6.23;;;5.47;;
32786;SDS011;19139;49.372;8.580;2022-07-29T11:48:16;5.77;;;4.83;;
32786;SDS011;19139;49.372;8.580;2022-07-29T11:51:04;5.80;;;5.30;;
32786;SDS011;19139;49.372;8.580;2022-07-29T11:53:41;5.73;;;5.13;;
32786;SDS011;19139;49.372;8.580;2022-07-29T11:56:17;5.70;;;4.83;;
32786;SDS011;19139;49.372;8.580;2022-07-29T11:58:50;5.80;;;4.80;;
32786;SDS011;19139;49.372;8.580;2022-07-29T12:01:27;5.00;;;4.60;;
32786;SDS011;19139;49.372;8.580;2022-07-29T12:04:02;5.13;;;4.50;;
32786;SDS011;19139;49.372;8.580;2022-07-29T12:06:32;5.40;;;4.67;;
32786;SDS011;19139;49.372;8.580;2022-07-29T12:09:00;5.03;;;4.63;;
32786;SDS011;19139;49.372;8.580;2022-07-29T12:11:36;5.40;;;4.90;;
32786;SDS011;19139;49.372;8.580;2022-07-29T12:14:04;5.40;;;4.80;;
32786;SDS011;19139;49.372;8.580;2022-07-29T12:16:35;7.00;;;4.87;;
32786;SDS011;19139;49.372;8.580;2022-07-29T12:19:06;5.90;;;4.90;;
32786;SDS011;19139;49.372;8.580;2022-07-29T12:24:42;4.83;;;4.43;;
32786;SDS011;19139;49.372;8.580;2022-07-29T12:27:10;5.47;;;4.97;;
32786;SDS011;19139;49.372;8.580;2022-07-29T12:29:39;5.17;;;4.67;;
32786;SDS011;19139;49.372;8.580;2022-07-29T12:32:12;5.77;;;5.23;;
32786;SDS011;19139;49.372;8.580;2022-07-29T12:34:45;4.70;;;4.30;;
32786;SDS011;19139;49.372;8.580;2022-07-29T12:37:12;5.60;;;5.10;;
32786;SDS011;19139;49.372;8.580;2022-07-29T12:39:38;6.37;;;4.77;;
32786;SDS011;19139;49.372;8.580;2022-07-29T12:42:15;4.90;;;4.47;;
32786;SDS011;19139;49.372;8.580;2022-07-29T12:44:44;5.57;;;4.50;;
32786;SDS011;19139;49.372;8.580;2022-07-29T12:47:18;6.67;;;4.73;;
32786;SDS011;19139;49.372;8.580;2022-07-29T12:49:51;5.13;;;4.50;;
32786;SDS011;19139;49.372;8.580;2022-07-29T12:52:39;4.70;;;4.30;;
32786;SDS011;19139;49.372;8.580;2022-07-29T12:55:11;6.97;;;5.40;;
32786;SDS011;19139;49.372;8.580;2022-07-29T12:57:46;5.03;;;4.60;;
32786;SDS011;19139;49.372;8.580;2022-07-29T13:00:14;5.10;;;4.60;;
32786;SDS011;19139;49.372;8.580;2022-07-29T13:02:42;5.20;;;4.70;;
32786;SDS011;19139;49.372;8.580;2022-07-29T13:05:14;5.30;;;4.80;;
32786;SDS011;19139;49.372;8.580;2022-07-29T13:07:40;5.60;;;5.10;;
32786;SDS011;19139;49.372;8.580;2022-07-29T13:10:22;6.83;;;5.40;;
32786;SDS011;19139;49.372;8.580;2022-07-29T13:15:29;5.63;;;5.03;;
32786;SDS011;19139;49.372;8.580;2022-07-29T13:17:57;6.23;;;5.00;;
32786;SDS011;19139;49.372;8.580;2022-07-29T13:20:28;6.17;;;5.50;;
32786;SDS011;19139;49.372;8.580;2022-07-29T13:22:56;6.23;;;4.70;;
32786;SDS011;19139;49.372;8.580;2022-07-29T13:25:27;5.33;;;4.80;;
32786;SDS011;19139;49.372;8.580;2022-07-29T13:27:56;6.90;;;4.70;;
32786;SDS011;19139;49.372;8.580;2022-07-29T13:30:28;5.57;;;5.00;;
32786;SDS011;19139;49.372;8.580;2022-07-29T13:32:55;5.27;;;4.77;;
32786;SDS011;19139;49.372;8.580;2022-07-29T13:35:27;5.83;;;5.33;;
32786;SDS011;19139;49.372;8.580;2022-07-29T13:37:55;5.50;;;5.00;;
32786;SDS011;19139;49.372;8.580;2022-07-29T13:40:27;8.03;;;6.70;;
32786;SDS011;19139;49.372;8.580;2022-07-29T13:43:00;5.23;;;4.73;;
32786;SDS011;19139;49.372;8.580;2022-07-29T13:45:26;5.63;;;5.10;;
32786;SDS011;19139;49.372;8.580;2022-07-29T13:47:58;5.43;;;4.93;;
32786;SDS011;19139;49.372;8.580;2022-07-29T13:50:29;5.63;;;5.13;;
32786;SDS011;19139;49.372;8.580;2022-07-29T13:52:56;6.10;;;5.50;;
32786;SDS011;19139;49.372;8.580;2022-07-29T13:55:27;5.90;;;5.30;;
32786;SDS011;19139;49.372;8.580;2022-07-29T13:57:59;6.37;;;4.70;;
32786;SDS011;19139;49.372;8.580;2022-07-29T14:00:29;5.03;;;4.53;;
32786;SDS011;19139;49.372;8.580;2022-07-29T14:02:56;5.83;;;5.10;;
32786;SDS011;19139;49.372;8.580;2022-07-29T14:05:27;5.47;;;5.00;;
32786;SDS011;19139;49.372;8.580;2022-07-29T14:07:59;5.47;;;4.97;;
32786;SDS011;19139;49.372;8.580;2022-07-29T14:10:25;7.10;;;4.70;;
32786;SDS011;19139;49.372;8.580;2022-07-29T14:12:57;4.90;;;4.50;;
32786;SDS011;19139;49.372;8.580;2022-07-29T14:15:29;5.43;;;4.93;;
32786;SDS011;19139;49.372;8.580;2022-07-29T14:17:55;5.50;;;5.03;;
32786;SDS011;19139;49.372;8.580;2022-07-29T14:20:27;5.00;;;4.67;;
32786;SDS011;19139;49.372;8.580;2022-07-29T14:22:55;6.90;;;4.90;;
32786;SDS011;19139;49.372;8.580;2022-07-29T14:25:27;5.13;;;4.57;;
32786;SDS011;19139;49.372;8.580;2022-07-29T14:27:54;4.80;;;4.37;;
32786;SDS011;19139;49.372;8.580;2022-07-29T14:30:23;6.07;;;5.57;;
32786;SDS011;19139;49.372;8.580;2022-07-29T14:32:50;6.97;;;4.80;;
32786;SDS011;19139;49.372;8.580;2022-07-29T14:35:17;5.53;;;4.00;;
32786;SDS011;19139;49.372;8.580;2022-07-29T14:37:48;4.50;;;4.13;;
32786;SDS011;19139;49.372;8.580;2022-07-29T14:40:20;4.93;;;4.53;;
32786;SDS011;19139;49.372;8.580;2022-07-29T14:42:46;5.73;;;4.50;;
32786;SDS011;19139;49.372;8.580;2022-07-29T14:45:18;6.10;;;4.33;;
32786;SDS011;19139;49.372;8.580;2022-07-29T14:47:49;5.03;;;4.53;;
32786;SDS011;19139;49.372;8.580;2022-07-29T14:50:21;5.23;;;4.73;;
32786;SDS011;19139;49.372;8.580;2022-07-29T14:52:56;5.30;;;4.83;;
32786;SDS011;19139;49.372;8.580;2022-07-29T14:55:28;6.00;;;3.90;;
32786;SDS011;19139;49.372;8.580;2022-07-29T14:57:55;3.90;;;3.53;;
32786;SDS011;19139;49.372;8.580;2022-07-29T15:00:35;5.03;;;4.50;;
32786;SDS011;19139;49.372;8.580;2022-07-29T15:03:03;4.80;;;3.70;;
32786;SDS011;19139;49.372;8.580;2022-07-29T15:05:30;5.00;;;3.97;;
32786;SDS011;19139;49.372;8.580;2022-07-29T15:07:58;4.40;;;4.00;;
32786;SDS011;19139;49.372;8.580;2022-07-29T15:10:25;5.50;;;4.10;;
32786;SDS011;19139;49.372;8.580;2022-07-29T15:12:53;5.53;;;4.50;;
32786;SDS011;19139;49.372;8.580;2022-07-29T15:15:25;4.40;;;3.90;;
32786;SDS011;19139;49.372;8.580;2022-07-29T15:17:57;4.30;;;3.90;;
32786;SDS011;19139;49.372;8.580;2022-07-29T15:20:28;4.33;;;3.93;;
32786;SDS011;19139;49.372;8.580;2022-07-29T15:22:55;5.33;;;3.87;;
32786;SDS011;19139;49.372;8.580;2022-07-29T15:25:22;3.73;;;3.43;;
32786;SDS011;19139;49.372;8.580;2022-07-29T15:27:55;5.23;;;3.93;;
32786;SDS011;19139;49.372;8.580;2022-07-29T15:30:27;3.90;;;3.53;;
32786;SDS011;19139;49.372;8.580;2022-07-29T15:32:59;3.93;;;3.60;;
32786;SDS011;19139;49.372;8.580;2022-07-29T15:35:26;3.50;;;3.20;;
32786;SDS011;19139;49.372;8.580;2022-07-29T15:37:57;5.10;;;3.67;;
32786;SDS011;19139;49.372;8.580;2022-07-29T15:40:24;3.87;;;3.43;;
32786;SDS011;19139;49.372;8.580;2022-07-29T15:42:51;10.13;;;4.10;;